Time;durP1;ratioP1;P1;durP2;ratioP2;P2;SDS_P1;SDS_P2;PMS_P1;PMS_P2;Temp;Humidity;BMP_temperature;BMP_pressure;BME280_temperature;BME280_humidity;BME280_pressure;Samples;Min_cycle;Max_cycle;Signal;HPM_P1;HPM_P2
2021/12/09 00:01:21;;;;;;;56.72;27.50;;;1.30;99.10;;;;;;4976735;28;20019;-69
2021/12/09 00:03:47;;;;;;;59.78;28.98;;;1.30;99.10;;;;;;4964710;28;20101;-69
2021/12/09 00:06:13;;;;;;;61.88;28.52;;;1.30;99.10;;;;;;4969224;28;20033;-69
2021/12/09 00:08:38;;;;;;;58.35;28.85;;;1.30;99.10;;;;;;4965815;28;20144;-69
2021/12/09 00:11:06;;;;;;;54.33;27.60;;;1.30;99.10;;;;;;4960193;28;20386;-69
2021/12/09 00:13:32;;;;;;;67.90;30.52;;;1.30;99.10;;;;;;4966665;28;20029;-68
2021/12/09 00:15:58;;;;;;;68.38;29.13;;;1.30;99.10;;;;;;4964119;28;20027;-69
2021/12/09 00:18:25;;;;;;;58.47;29.02;;;1.30;99.10;;;;;;4970148;28;20045;-69
2021/12/09 00:20:51;;;;;;;59.38;29.65;;;1.30;99.10;;;;;;4981883;28;20344;-69
2021/12/09 00:23:16;;;;;;;66.60;30.45;;;1.30;99.10;;;;;;4958560;28;20393;-68
2021/12/09 00:25:42;;;;;;;63.40;29.42;;;1.30;99.10;;;;;;4964264;28;20042;-68
2021/12/09 00:28:08;;;;;;;62.80;29.02;;;1.30;99.00;;;;;;4992326;28;20121;-68
2021/12/09 00:30:35;;;;;;;70.90;29.90;;;1.30;99.00;;;;;;4990096;28;20471;-69
2021/12/09 00:33:04;;;;;;;62.10;29.20;;;1.30;99.10;;;;;;4966157;28;20031;-69
2021/12/09 00:35:41;;;;;;;62.92;27.80;;;1.30;99.10;;;;;;4987194;28;20037;-69
2021/12/09 00:38:09;;;;;;;60.53;28.98;;;1.30;99.00;;;;;;4966884;28;20027;-69
2021/12/09 00:40:35;;;;;;;73.63;31.40;;;1.30;99.00;;;;;;4962303;28;20072;-69
2021/12/09 00:43:03;;;;;;;70.43;30.02;;;1.30;99.00;;;;;;4965075;28;20506;-69
2021/12/09 00:45:30;;;;;;;59.10;28.88;;;1.30;99.00;;;;;;4970262;28;20085;-69
2021/12/09 00:47:56;;;;;;;69.18;30.23;;;1.30;99.00;;;;;;4972388;28;20030;-69
2021/12/09 00:50:23;;;;;;;67.28;29.65;;;1.30;99.00;;;;;;4975172;28;20122;-68
2021/12/09 00:52:48;;;;;;;64.65;30.65;;;1.20;99.00;;;;;;4966025;28;20070;-69
2021/12/09 00:55:15;;;;;;;68.72;31.67;;;1.30;99.00;;;;;;4960173;28;20406;-68
2021/12/09 00:57:42;;;;;;;66.70;29.17;;;1.30;99.00;;;;;;4948184;28;20023;-69
2021/12/09 01:00:13;;;;;;;65.90;29.83;;;1.30;99.00;;;;;;4967446;28;20110;-69
2021/12/09 01:02:38;;;;;;;64.53;29.80;;;1.30;99.00;;;;;;4966963;28;20023;-68
2021/12/09 01:05:05;;;;;;;66.10;29.70;;;1.30;99.00;;;;;;4976527;28;20453;-69
2021/12/09 01:07:32;;;;;;;67.60;30.35;;;1.20;99.00;;;;;;4970619;28;20049;-69
2021/12/09 01:09:57;;;;;;;78.60;31.65;;;1.30;99.00;;;;;;4968143;28;20469;-69
2021/12/09 01:12:23;;;;;;;64.45;31.35;;;1.30;99.00;;;;;;4956887;28;20130;-69
2021/12/09 01:14:48;;;;;;;69.95;30.55;;;1.30;99.00;;;;;;4963715;28;20065;-69
2021/12/09 01:17:14;;;;;;;75.47;31.83;;;1.20;99.00;;;;;;4967110;28;20033;-69
2021/12/09 01:19:40;;;;;;;62.90;28.67;;;1.20;99.00;;;;;;4970484;28;20034;-68
2021/12/09 01:22:05;;;;;;;68.78;30.90;;;1.20;99.00;;;;;;4961021;28;20451;-69
2021/12/09 01:24:31;;;;;;;76.22;30.30;;;1.20;99.00;;;;;;4966608;28;20050;-68
2021/12/09 01:26:58;;;;;;;72.85;30.80;;;1.30;99.00;;;;;;4963114;28;20030;-69
2021/12/09 01:29:33;;;;;;;69.75;30.85;;;1.20;99.00;;;;;;4963856;28;20045;-69
2021/12/09 01:32:02;;;;;;;67.50;31.60;;;1.20;99.10;;;;;;4945739;28;20098;-69
2021/12/09 01:34:28;;;;;;;61.92;30.63;;;1.30;99.10;;;;;;4963558;28;20054;-68
2021/12/09 01:36:55;;;;;;;68.70;30.88;;;1.30;99.00;;;;;;4962555;28;20031;-69
2021/12/09 01:39:21;;;;;;;74.35;31.90;;;1.30;99.10;;;;;;4964340;28;20065;-68
2021/12/09 01:41:47;;;;;;;71.00;31.02;;;1.20;99.00;;;;;;4972162;28;20044;-69
2021/12/09 01:44:13;;;;;;;70.30;31.63;;;1.20;99.10;;;;;;4976006;28;20043;-69
2021/12/09 01:46:39;;;;;;;72.55;33.05;;;1.20;99.10;;;;;;4961399;28;20302;-69
2021/12/09 01:49:05;;;;;;;72.97;32.42;;;1.20;99.10;;;;;;4961943;28;20100;-69
2021/12/09 01:51:31;;;;;;;65.00;30.23;;;1.20;99.10;;;;;;4967393;28;20037;-69
2021/12/09 01:53:56;;;;;;;75.72;32.08;;;1.30;99.10;;;;;;4987790;28;20428;-69
2021/12/09 01:56:24;;;;;;;70.43;31.35;;;1.30;99.10;;;;;;4972552;28;20632;-69
2021/12/09 01:58:54;;;;;;;72.57;31.20;;;1.30;99.10;;;;;;4973765;28;20171;-68
2021/12/09 02:01:20;;;;;;;75.30;31.92;;;1.30;99.10;;;;;;4972295;28;20456;-69
2021/12/09 02:03:47;;;;;;;70.05;30.88;;;1.20;99.10;;;;;;4969619;28;20030;-70
2021/12/09 02:06:12;;;;;;;70.20;31.58;;;1.20;99.10;;;;;;4967541;28;20509;-69
2021/12/09 02:08:38;;;;;;;79.78;32.00;;;1.20;99.10;;;;;;4974138;28;20493;-69
2021/12/09 02:11:04;;;;;;;70.47;31.10;;;1.20;99.10;;;;;;4983514;28;20065;-69
2021/12/09 02:13:30;;;;;;;74.50;34.15;;;1.20;99.10;;;;;;4966960;28;20513;-69
2021/12/09 02:15:56;;;;;;;78.40;32.17;;;1.20;99.10;;;;;;4981563;28;20019;-68
2021/12/09 02:18:23;;;;;;;77.18;32.03;;;1.20;99.10;;;;;;4966901;28;20031;-68
2021/12/09 02:21:13;;;;;;;76.93;31.08;;;1.20;99.10;;;;;;4956664;28;20442;-69
2021/12/09 02:23:43;;;;;;;73.33;32.13;;;1.20;99.10;;;;;;4962164;28;20064;-68
2021/12/09 02:26:09;;;;;;;76.60;31.77;;;1.20;99.00;;;;;;4976380;28;20253;-69
2021/12/09 02:28:34;;;;;;;72.03;31.58;;;1.20;99.10;;;;;;4966057;28;20094;-69
2021/12/09 02:31:00;;;;;;;79.72;32.58;;;1.20;99.10;;;;;;4972623;28;20108;-68
2021/12/09 02:33:26;;;;;;;73.53;32.60;;;1.20;99.00;;;;;;4965749;28;20130;-69
2021/12/09 02:35:51;;;;;;;76.07;31.58;;;1.20;99.00;;;;;;4975096;28;20157;-69
2021/12/09 02:38:17;;;;;;;82.10;31.55;;;1.10;99.00;;;;;;4968932;28;20148;-68
2021/12/09 02:40:42;;;;;;;69.45;30.88;;;1.20;99.00;;;;;;4967836;28;20401;-69
2021/12/09 02:43:08;;;;;;;70.75;29.58;;;1.10;99.00;;;;;;4969900;28;20057;-69
2021/12/09 02:45:39;;;;;;;66.10;29.25;;;1.10;99.00;;;;;;4966484;28;20071;-69
2021/12/09 02:48:05;;;;;;;71.60;30.45;;;1.10;99.00;;;;;;4969204;28;20015;-69
2021/12/09 02:50:31;;;;;;;66.85;27.70;;;1.10;99.00;;;;;;4967215;28;20042;-69
2021/12/09 02:52:56;;;;;;;80.32;31.17;;;1.10;99.00;;;;;;4971341;28;20517;-69
2021/12/09 02:55:22;;;;;;;72.30;29.38;;;1.10;98.90;;;;;;4958894;28;20228;-68
2021/12/09 02:57:52;;;;;;;72.63;31.20;;;1.10;99.00;;;;;;4957683;28;20461;-69
2021/12/09 03:00:18;;;;;;;77.32;30.83;;;1.10;98.90;;;;;;4976152;28;20023;-69
2021/12/09 03:02:44;;;;;;;62.15;29.33;;;1.10;98.90;;;;;;4978475;28;20030;-69
2021/12/09 03:05:09;;;;;;;70.35;30.98;;;1.10;98.90;;;;;;4963304;28;20401;-69
2021/12/09 03:07:39;;;;;;;67.35;28.23;;;1.00;98.90;;;;;;4965920;28;20023;-70
2021/12/09 03:10:10;;;;;;;78.40;30.00;;;1.10;98.90;;;;;;4959840;28;20472;-69
2021/12/09 03:12:40;;;;;;;75.32;29.63;;;1.00;98.80;;;;;;4960627;28;20299;-69
2021/12/09 03:15:06;;;;;;;65.97;29.35;;;1.10;98.90;;;;;;4963239;28;20084;-68
2021/12/09 03:17:33;;;;;;;70.70;31.00;;;1.10;98.90;;;;;;4968565;28;20045;-69
2021/12/09 03:19:59;;;;;;;71.82;29.30;;;1.10;98.80;;;;;;4962040;28;20023;-69
2021/12/09 03:22:25;;;;;;;68.28;29.17;;;1.00;98.80;;;;;;4964687;28;20062;-69
2021/12/09 03:24:51;;;;;;;76.70;30.75;;;1.10;98.80;;;;;;4965454;28;20029;-69
2021/12/09 03:27:17;;;;;;;80.03;30.27;;;1.00;98.90;;;;;;4961880;28;20503;-68
2021/12/09 03:29:43;;;;;;;78.55;30.25;;;1.00;98.90;;;;;;4964351;28;20031;-69
2021/12/09 03:32:12;;;;;;;71.38;29.38;;;1.10;98.90;;;;;;4964619;28;20085;-69
2021/12/09 03:34:39;;;;;;;71.97;29.52;;;1.00;98.80;;;;;;4974841;28;20118;-68
2021/12/09 03:37:27;;;;;;;67.60;29.38;;;1.00;98.80;;;;;;4964665;28;20399;-69
2021/12/09 03:39:53;;;;;;;74.68;30.60;;;1.00;98.90;;;;;;4956897;28;20053;-69
2021/12/09 03:42:23;;;;;;;70.20;28.30;;;1.10;98.90;;;;;;4958507;28;20097;-69
2021/12/09 03:44:50;;;;;;;69.20;28.40;;;1.00;98.80;;;;;;4956368;28;20050;-69
2021/12/09 03:47:18;;;;;;;79.07;29.63;;;1.00;98.80;;;;;;4952563;28;20426;-69
2021/12/09 03:49:44;;;;;;;72.35;30.23;;;1.00;98.80;;;;;;4971854;28;20453;-69
2021/12/09 03:52:11;;;;;;;69.50;30.27;;;1.00;98.90;;;;;;4964479;28;20037;-69
2021/12/09 03:54:37;;;;;;;67.43;29.45;;;1.00;98.90;;;;;;4963937;28;20027;-69
2021/12/09 03:57:03;;;;;;;73.05;29.08;;;1.00;98.80;;;;;;4969644;28;20113;-69
2021/12/09 03:59:29;;;;;;;72.88;30.73;;;1.00;98.90;;;;;;4970987;28;20025;-69
2021/12/09 04:01:55;;;;;;;85.20;31.10;;;1.00;98.90;;;;;;4970443;28;20114;-68
2021/12/09 04:04:21;;;;;;;74.20;29.25;;;0.90;98.90;;;;;;4977073;28;20457;-69
2021/12/09 04:06:47;;;;;;;66.68;30.20;;;1.00;98.90;;;;;;4962418;28;20038;-69
2021/12/09 04:09:15;;;;;;;74.88;31.30;;;1.00;98.90;;;;;;4960595;28;20109;-69
2021/12/09 04:11:40;;;;;;;74.07;29.85;;;0.90;98.90;;;;;;4964107;28;20110;-69
2021/12/09 04:14:06;;;;;;;70.72;30.15;;;1.00;98.90;;;;;;4969585;28;20031;-69
2021/12/09 04:16:33;;;;;;;70.32;28.25;;;1.00;98.90;;;;;;4964390;28;20031;-69
2021/12/09 04:18:59;;;;;;;74.70;30.95;;;1.00;98.90;;;;;;4960860;28;20054;-69
2021/12/09 04:21:25;;;;;;;75.93;30.63;;;1.00;98.90;;;;;;4957900;28;20034;-69
2021/12/09 04:23:51;;;;;;;85.30;31.55;;;1.00;98.90;;;;;;4965938;28;20034;-69
2021/12/09 04:26:16;;;;;;;75.78;31.33;;;1.00;98.80;;;;;;4963995;28;20126;-69
2021/12/09 04:28:43;;;;;;;82.78;32.80;;;1.00;98.90;;;;;;4971511;28;20117;-69
2021/12/09 04:31:08;;;;;;;66.72;30.35;;;1.00;98.90;;;;;;4963284;28;20461;-69
2021/12/09 04:33:34;;;;;;;75.18;31.00;;;1.00;98.80;;;;;;4960463;28;20031;-69
2021/12/09 04:36:01;;;;;;;76.70;31.55;;;1.00;98.90;;;;;;4951364;28;20034;-69
2021/12/09 04:38:27;;;;;;;73.63;31.95;;;1.00;98.90;;;;;;4981803;28;20489;-70
2021/12/09 04:40:53;;;;;;;75.57;31.23;;;1.00;98.90;;;;;;4968958;28;20026;-69
2021/12/09 04:43:18;;;;;;;75.63;31.08;;;1.00;98.80;;;;;;4968731;28;20042;-69
2021/12/09 04:45:44;;;;;;;66.25;29.60;;;0.90;98.80;;;;;;4969809;28;20553;-69
2021/12/09 04:48:10;;;;;;;73.35;30.98;;;0.90;98.80;;;;;;4968882;28;20510;-69
2021/12/09 04:50:38;;;;;;;80.30;31.05;;;1.00;98.90;;;;;;4960152;28;20023;-69
2021/12/09 04:53:06;;;;;;;76.88;31.52;;;0.90;98.80;;;;;;4963732;28;21337;-69
2021/12/09 04:55:33;;;;;;;76.55;33.33;;;0.90;98.80;;;;;;4971259;28;20117;-69
2021/12/09 05:03:12;;;;;;;72.28;30.05;;;1.00;98.80;;;;;;5199810;23;20503;-66
2021/12/09 05:05:46;;;;;;;74.38;31.42;;;0.90;98.80;;;;;;4938404;28;20298;-65
2021/12/09 05:08:16;;;;;;;74.88;30.90;;;0.90;98.70;;;;;;4936595;28;20071;-65
2021/12/09 05:11:08;;;;;;;72.88;32.08;;;1.00;98.80;;;;;;4940771;28;20078;-66
2021/12/09 05:13:39;;;;;;;72.50;31.30;;;1.00;98.80;;;;;;4941000;28;20407;-66
2021/12/09 05:16:07;;;;;;;71.27;32.03;;;1.00;98.70;;;;;;4948556;28;20505;-66
2021/12/09 05:18:35;;;;;;;81.88;32.50;;;0.90;98.60;;;;;;4942666;29;20028;-66
2021/12/09 05:21:01;;;;;;;72.28;31.42;;;0.90;98.70;;;;;;4947620;28;20023;-65
2021/12/09 05:23:28;;;;;;;66.15;29.05;;;0.90;98.60;;;;;;4952001;28;20208;-65
2021/12/09 05:25:53;;;;;;;76.20;30.15;;;0.90;98.60;;;;;;4946057;28;20097;-64
2021/12/09 05:28:25;;;;;;;79.13;32.30;;;0.90;98.60;;;;;;4946601;28;20059;-67
2021/12/09 05:33:35;;;;;;;78.18;30.95;;;0.90;98.60;;;;;;4938423;29;20133;-65
2021/12/09 05:36:02;;;;;;;71.28;29.52;;;0.90;98.60;;;;;;4946943;29;20031;-65
2021/12/09 05:38:27;;;;;;;71.30;29.65;;;0.90;98.60;;;;;;4943717;28;20032;-65
2021/12/09 05:40:54;;;;;;;66.78;30.73;;;1.00;98.60;;;;;;4947692;28;20026;-65
2021/12/09 05:43:20;;;;;;;70.43;29.23;;;0.90;98.60;;;;;;4955183;28;20031;-65
2021/12/09 05:45:48;;;;;;;73.18;29.52;;;0.90;98.50;;;;;;4948021;28;20592;-65
2021/12/09 05:48:14;;;;;;;66.47;30.30;;;0.90;98.60;;;;;;4943991;28;20032;-65
2021/12/09 05:50:41;;;;;;;78.90;31.30;;;0.90;98.60;;;;;;4941275;28;20034;-65
2021/12/09 05:53:07;;;;;;;71.18;29.95;;;0.90;98.60;;;;;;4945171;28;20035;-66
2021/12/09 05:55:33;;;;;;;74.28;30.85;;;0.90;98.60;;;;;;4926806;28;20038;-66
2021/12/09 05:57:59;;;;;;;76.93;31.88;;;0.90;98.60;;;;;;4936543;28;20023;-66
2021/12/09 06:00:25;;;;;;;79.25;31.55;;;0.90;98.60;;;;;;4941448;28;20506;-65
2021/12/09 06:02:50;;;;;;;71.05;31.00;;;0.90;98.60;;;;;;4942851;29;20130;-65
2021/12/09 06:05:16;;;;;;;76.35;32.60;;;0.90;98.70;;;;;;4945245;28;20122;-65
2021/12/09 06:07:42;;;;;;;70.90;29.92;;;0.90;98.70;;;;;;4941204;28;20035;-66
2021/12/09 06:10:08;;;;;;;74.30;31.23;;;0.90;98.70;;;;;;4944851;29;20043;-66
2021/12/09 06:12:35;;;;;;;81.00;30.75;;;0.90;98.70;;;;;;4949316;28;20679;-66
2021/12/09 06:15:01;;;;;;;68.88;30.30;;;0.90;98.70;;;;;;4955333;28;20397;-65
2021/12/09 06:17:26;;;;;;;70.90;28.98;;;0.80;98.70;;;;;;4951255;28;20028;-65
2021/12/09 06:19:52;;;;;;;74.72;30.45;;;0.90;98.70;;;;;;4943219;28;20053;-65
2021/12/09 06:22:17;;;;;;;79.50;30.13;;;0.90;98.70;;;;;;4950603;28;20035;-65
2021/12/09 06:24:45;;;;;;;78.20;31.55;;;0.90;98.80;;;;;;4946758;28;20523;-65
2021/12/09 06:27:10;;;;;;;70.65;28.83;;;0.80;98.70;;;;;;4943767;28;20115;-65
2021/12/09 06:29:36;;;;;;;74.90;30.77;;;0.80;98.70;;;;;;4943885;29;20119;-65
2021/12/09 06:32:02;;;;;;;80.40;32.53;;;0.80;98.80;;;;;;4943575;29;20027;-66
2021/12/09 06:34:29;;;;;;;71.30;29.90;;;0.80;98.70;;;;;;4939131;28;20046;-65
2021/12/09 06:36:55;;;;;;;68.03;29.00;;;0.80;98.70;;;;;;4944389;28;20019;-65
2021/12/09 06:39:20;;;;;;;83.38;30.35;;;0.70;98.70;;;;;;4934204;28;20497;-65
2021/12/09 06:41:46;;;;;;;75.88;30.70;;;0.70;98.70;;;;;;4944158;28;20029;-65
2021/12/09 06:44:11;;;;;;;75.00;30.42;;;0.80;98.80;;;;;;4940208;29;20166;-65
2021/12/09 06:46:37;;;;;;;67.68;29.92;;;0.70;98.80;;;;;;4942234;28;20067;-65
2021/12/09 06:49:03;;;;;;;80.05;32.45;;;0.80;98.80;;;;;;4938600;28;20232;-66
2021/12/09 06:51:29;;;;;;;76.25;32.40;;;0.70;98.80;;;;;;4943322;29;20086;-66
2021/12/09 06:53:56;;;;;;;81.55;31.98;;;0.80;98.80;;;;;;4944460;28;20421;-65
2021/12/09 06:56:22;;;;;;;77.18;32.38;;;0.70;98.80;;;;;;4945678;28;20096;-66
2021/12/09 06:58:48;;;;;;;78.85;32.22;;;0.70;98.80;;;;;;4946915;28;20387;-66
2021/12/09 07:01:14;;;;;;;72.20;31.35;;;0.70;98.80;;;;;;4939957;28;20042;-66
2021/12/09 07:03:39;;;;;;;78.88;31.27;;;0.70;98.80;;;;;;4943198;28;20456;-65
2021/12/09 07:06:06;;;;;;;73.90;31.17;;;0.70;98.80;;;;;;4936946;28;20035;-65
2021/12/09 07:08:41;;;;;;;84.55;32.80;;;0.70;98.80;;;;;;4943078;28;20031;-65
2021/12/09 07:11:07;;;;;;;83.05;32.85;;;0.70;98.80;;;;;;4921119;29;20220;-65
2021/12/09 07:13:33;;;;;;;82.93;34.20;;;0.70;98.70;;;;;;4944058;28;20039;-66
2021/12/09 07:15:59;;;;;;;85.55;33.63;;;0.70;98.80;;;;;;4945253;28;20063;-65
2021/12/09 07:18:25;;;;;;;79.05;31.88;;;0.70;98.80;;;;;;4946555;28;20027;-65
2021/12/09 07:20:52;;;;;;;83.05;32.60;;;0.70;98.80;;;;;;4927198;28;20038;-65
2021/12/09 07:23:18;;;;;;;88.13;33.13;;;0.70;98.80;;;;;;4928826;29;20071;-66
2021/12/09 07:25:43;;;;;;;75.72;31.60;;;0.70;98.80;;;;;;4941945;28;20154;-65
2021/12/09 07:28:09;;;;;;;83.15;30.27;;;0.70;98.70;;;;;;4946168;28;20506;-65
2021/12/09 07:30:34;;;;;;;76.25;31.45;;;0.70;98.70;;;;;;4940417;28;20554;-66
2021/12/09 07:33:00;;;;;;;85.50;30.90;;;0.70;98.80;;;;;;4945445;28;20027;-66
2021/12/09 07:35:30;;;;;;;80.65;32.75;;;0.70;98.80;;;;;;4939318;29;20173;-65
2021/12/09 07:37:56;;;;;;;68.30;30.87;;;0.70;98.80;;;;;;4945441;28;20075;-66
2021/12/09 07:40:22;;;;;;;76.43;31.90;;;0.80;98.80;;;;;;4936505;29;20027;-65
2021/12/09 07:42:47;;;;;;;70.38;29.83;;;0.80;98.80;;;;;;4920478;29;20544;-65
2021/12/09 07:45:15;;;;;;;70.57;30.58;;;0.80;98.80;;;;;;4946029;28;20047;-65
2021/12/09 07:47:40;;;;;;;72.63;29.70;;;0.80;98.80;;;;;;4944164;28;20070;-65
2021/12/09 07:50:08;;;;;;;70.75;29.92;;;0.80;98.80;;;;;;4925253;29;20046;-66
2021/12/09 07:52:33;;;;;;;67.50;30.73;;;0.80;98.70;;;;;;4939291;29;20477;-66
2021/12/09 07:54:59;;;;;;;66.50;29.83;;;0.80;98.70;;;;;;4945297;28;20051;-65
2021/12/09 07:57:24;;;;;;;70.57;29.08;;;0.80;98.70;;;;;;4945680;28;20397;-65
2021/12/09 07:59:50;;;;;;;73.25;29.80;;;0.80;98.70;;;;;;4945179;28;20370;-65
2021/12/09 08:02:16;;;;;;;67.90;29.33;;;0.80;98.60;;;;;;4939096;28;20414;-66
2021/12/09 08:04:41;;;;;;;66.43;29.95;;;0.80;98.70;;;;;;4949260;28;20050;-66
2021/12/09 08:07:07;;;;;;;77.38;31.45;;;0.80;98.60;;;;;;4946913;28;20723;-65
2021/12/09 08:09:33;;;;;;;73.32;31.35;;;0.80;98.60;;;;;;4943685;28;20023;-65
2021/12/09 08:11:59;;;;;;;76.53;31.13;;;0.80;98.60;;;;;;4937590;28;20451;-65
2021/12/09 08:14:24;;;;;;;73.68;31.90;;;0.80;98.50;;;;;;4940845;28;20035;-65
2021/12/09 08:17:08;;;;;;;65.60;29.15;;;0.80;98.60;;;;;;4942484;28;20090;-65
2021/12/09 08:19:34;;;;;;;66.30;29.83;;;0.80;98.40;;;;;;4939681;28;20058;-65
2021/12/09 08:21:59;;;;;;;71.72;29.98;;;0.80;98.50;;;;;;4941762;28;20493;-65
2021/12/09 08:24:25;;;;;;;71.20;30.90;;;0.90;98.50;;;;;;4945104;28;20158;-66
2021/12/09 08:26:50;;;;;;;74.93;31.90;;;0.90;98.40;;;;;;4944825;28;20042;-65
2021/12/09 08:29:16;;;;;;;82.45;31.40;;;0.80;98.30;;;;;;4945119;29;20490;-66
2021/12/09 08:31:41;;;;;;;70.18;31.20;;;0.80;98.30;;;;;;4941433;28;20043;-65
2021/12/09 08:34:06;;;;;;;73.25;30.38;;;0.90;98.30;;;;;;4944218;28;20490;-65
2021/12/09 08:36:33;;;;;;;81.55;33.17;;;0.90;98.30;;;;;;4924175;29;20022;-65
2021/12/09 08:38:58;;;;;;;75.90;32.22;;;1.00;98.30;;;;;;4936125;28;20510;-65
2021/12/09 08:41:25;;;;;;;66.93;30.42;;;0.90;98.00;;;;;;4943174;28;20049;-66
2021/12/09 08:43:51;;;;;;;66.65;30.40;;;0.90;98.20;;;;;;4944730;28;20086;-67
2021/12/09 08:46:17;;;;;;;72.72;31.13;;;1.00;98.20;;;;;;4941738;28;20075;-66
2021/12/09 08:48:43;;;;;;;76.20;31.75;;;0.90;98.10;;;;;;4940150;28;20039;-67
2021/12/09 08:51:09;;;;;;;72.53;32.47;;;1.00;98.20;;;;;;4944382;28;20549;-65
2021/12/09 08:53:35;;;;;;;81.82;33.92;;;1.00;98.10;;;;;;4939624;28;20039;-66
2021/12/09 08:56:01;;;;;;;71.03;32.03;;;1.00;98.00;;;;;;4939607;28;20020;-65
2021/12/09 08:58:29;;;;;;;67.57;31.20;;;1.00;97.90;;;;;;4942975;28;20026;-66
2021/12/09 09:00:57;;;;;;;70.10;31.88;;;1.10;98.00;;;;;;4943917;28;20027;-66
2021/12/09 09:03:23;;;;;;;65.60;29.85;;;1.00;97.90;;;;;;4944730;28;20114;-66
2021/12/09 09:05:48;;;;;;;68.97;30.90;;;1.00;97.80;;;;;;4944020;29;20035;-66
2021/12/09 09:08:14;;;;;;;62.40;29.40;;;1.00;97.80;;;;;;4938824;28;20422;-68
2021/12/09 09:10:42;;;;;;;63.15;29.83;;;1.00;97.70;;;;;;4939650;29;20035;-66
2021/12/09 09:13:09;;;;;;;65.65;30.08;;;1.00;97.70;;;;;;4936809;28;20114;-66
2021/12/09 09:15:36;;;;;;;64.57;30.38;;;1.10;97.70;;;;;;4920214;28;20023;-66
2021/12/09 09:18:02;;;;;;;64.10;30.40;;;1.10;97.60;;;;;;4938797;28;20403;-66
2021/12/09 09:20:30;;;;;;;64.05;30.10;;;1.10;97.60;;;;;;4938868;28;20435;-66
2021/12/09 09:22:56;;;;;;;71.43;29.77;;;1.10;97.60;;;;;;4936093;29;20019;-66
2021/12/09 09:25:29;;;;;;;67.97;29.92;;;1.20;97.60;;;;;;4942932;28;20032;-66
2021/12/09 09:27:58;;;;;;;66.85;29.02;;;1.20;97.50;;;;;;4936180;29;20390;-66
2021/12/09 09:30:27;;;;;;;61.75;29.02;;;1.10;97.50;;;;;;4921902;29;20122;-66
2021/12/09 09:32:53;;;;;;;67.50;30.17;;;1.20;97.50;;;;;;4923830;28;20118;-66
2021/12/09 09:35:19;;;;;;;59.25;28.55;;;1.30;97.50;;;;;;4938495;28;20133;-66
2021/12/09 09:37:45;;;;;;;60.90;29.77;;;1.30;97.30;;;;;;4938827;28;20019;-66
2021/12/09 09:40:17;;;;;;;63.78;29.48;;;1.20;97.20;;;;;;4941139;28;20030;-66
2021/12/09 09:45:12;;;;;;;55.33;26.95;;;1.20;96.80;;;;;;4942953;28;20138;-65
2021/12/09 09:47:38;;;;;;;57.33;28.17;;;1.30;97.00;;;;;;4945486;28;20031;-66
2021/12/09 09:50:06;;;;;;;60.05;28.23;;;1.40;97.10;;;;;;4941248;28;20023;-66
2021/12/09 09:52:32;;;;;;;57.67;27.50;;;1.20;96.80;;;;;;4937707;28;20038;-66
2021/12/09 09:54:59;;;;;;;57.58;26.90;;;1.20;96.80;;;;;;4949619;28;20409;-66
2021/12/09 09:57:25;;;;;;;56.85;26.88;;;1.20;96.80;;;;;;4948270;28;20094;-66
2021/12/09 09:59:51;;;;;;;55.05;28.40;;;1.20;96.70;;;;;;4937533;28;20458;-66
2021/12/09 10:02:17;;;;;;;62.45;28.13;;;1.30;96.80;;;;;;4943581;28;20043;-66
2021/12/09 10:04:59;;;;;;;58.28;27.20;;;1.20;96.70;;;;;;4945495;28;20027;-66
2021/12/09 10:07:26;;;;;;;61.65;27.60;;;1.20;96.70;;;;;;4941917;28;20134;-66
2021/12/09 10:09:53;;;;;;;63.00;27.83;;;1.30;96.70;;;;;;4946951;28;20067;-66
2021/12/09 10:12:19;;;;;;;54.78;26.83;;;1.30;96.80;;;;;;4945596;28;20188;-66
2021/12/09 10:14:49;;;;;;;68.55;29.23;;;1.30;96.70;;;;;;4942513;29;20111;-66
2021/12/09 10:17:45;;;;;;;57.55;27.52;;;1.40;96.90;;;;;;4946738;28;20028;-66
2021/12/09 10:20:11;;;;;;;52.80;25.27;;;1.30;96.60;;;;;;4940584;28;20471;-66
2021/12/09 10:22:37;;;;;;;60.70;28.17;;;1.30;96.80;;;;;;4945976;28;20098;-66
2021/12/09 10:25:17;;;;;;;60.72;27.15;;;1.30;96.80;;;;;;4929640;28;20451;-67
2021/12/09 10:27:45;;;;;;;56.60;28.30;;;1.50;97.00;;;;;;4948036;28;20031;-66
2021/12/09 10:30:18;;;;;;;51.72;26.63;;;1.60;97.00;;;;;;4938079;28;20031;-65
2021/12/09 10:32:44;;;;;;;58.28;28.13;;;1.40;96.60;;;;;;4936220;28;20031;-66
2021/12/09 10:35:15;;;;;;;52.33;26.92;;;1.40;96.60;;;;;;4940429;28;20094;-66
2021/12/09 10:37:43;;;;;;;57.70;26.27;;;1.40;96.70;;;;;;4928185;28;20089;-66
2021/12/09 10:40:20;;;;;;;50.47;26.60;;;1.50;96.70;;;;;;4944657;28;20082;-66
2021/12/09 10:42:55;;;;;;;60.72;28.00;;;1.60;96.70;;;;;;4946147;28;20124;-66
2021/12/09 10:45:28;;;;;;;55.08;27.38;;;1.60;96.70;;;;;;4945861;29;20217;-66
2021/12/09 10:48:17;;;;;;;61.28;26.45;;;1.70;96.60;;;;;;4944731;28;20031;-66
2021/12/09 10:56:00;;;;;;;53.05;24.77;;;1.80;96.40;;;;;;4938292;28;20035;-66
2021/12/09 10:58:38;;;;;;;55.88;26.05;;;1.80;96.30;;;;;;4950258;28;20122;-67
2021/12/09 11:01:05;;;;;;;58.33;26.20;;;1.90;96.20;;;;;;4944668;28;20027;-66
2021/12/09 11:03:54;;;;;;;54.75;26.15;;;1.80;96.00;;;;;;4947531;28;20239;-65
2021/12/09 11:06:47;;;;;;;54.40;26.45;;;2.00;96.30;;;;;;4939422;28;20028;-65
2021/12/09 11:09:13;;;;;;;55.22;25.15;;;2.00;96.20;;;;;;4942329;28;20084;-65
2021/12/09 11:11:42;;;;;;;58.40;25.90;;;2.00;96.00;;;;;;4939832;28;20032;-65
2021/12/09 11:14:14;;;;;;;53.55;26.80;;;2.10;96.10;;;;;;4947082;28;20462;-65
2021/12/09 11:16:43;;;;;;;58.08;27.02;;;1.90;95.70;;;;;;4941501;29;20035;-65
2021/12/09 11:19:25;;;;;;;54.58;26.10;;;1.90;95.90;;;;;;4942469;28;20097;-65
2021/12/09 11:21:57;;;;;;;58.95;27.13;;;2.00;95.90;;;;;;4936083;28;20031;-66
2021/12/09 11:24:27;;;;;;;58.63;27.00;;;2.00;95.80;;;;;;4925665;29;20066;-65
2021/12/09 11:26:56;;;;;;;59.63;27.03;;;1.90;95.90;;;;;;4943658;28;20118;-66
2021/12/09 11:29:48;;;;;;;55.38;27.55;;;2.00;95.70;;;;;;4941190;28;20857;-65
2021/12/09 11:32:25;;;;;;;60.33;27.42;;;2.00;95.80;;;;;;4925657;28;20039;-65
2021/12/09 11:35:18;;;;;;;53.67;26.08;;;2.00;95.90;;;;;;4943818;28;20439;-66
2021/12/09 11:37:53;;;;;;;54.38;27.98;;;2.10;96.00;;;;;;4940970;28;20091;-65
2021/12/09 11:40:44;;;;;;;57.65;28.48;;;2.20;96.00;;;;;;4945534;28;20061;-66
2021/12/09 11:43:12;;;;;;;;;;;2.20;95.80;;;;;;4938776;28;20053;-66
2021/12/09 11:45:42;;;;;;;65.50;28.23;;;2.30;95.70;;;;;;4945438;29;20360;-66
2021/12/09 11:48:11;;;;;;;49.30;26.40;;;2.30;95.60;;;;;;4944250;28;20129;-66
2021/12/09 11:50:39;;;;;;;61.33;28.25;;;2.40;95.70;;;;;;4944490;28;20031;-66
2021/12/09 11:53:11;;;;;;;58.05;27.45;;;2.60;95.60;;;;;;4944718;28;20037;-66
2021/12/09 11:55:43;;;;;;;59.30;27.85;;;2.50;95.30;;;;;;4944295;28;20038;-66
2021/12/09 11:58:32;;;;;;;51.97;26.25;;;2.50;95.10;;;;;;4941578;28;20031;-66
2021/12/09 12:13:01;;;;;;;54.90;27.63;;;2.80;94.30;;;;;;4939134;28;20142;-66
2021/12/09 12:18:18;;;;;;;54.42;26.65;;;2.80;94.10;;;;;;4939590;28;20086;-66
2021/12/09 12:21:03;;;;;;;62.53;28.90;;;2.70;93.80;;;;;;4926558;29;20042;-67
2021/12/09 12:26:56;;;;;;;55.45;26.30;;;2.80;94.00;;;;;;4892139;29;20024;-66
2021/12/09 12:29:56;;;;;;;60.15;27.52;;;3.00;94.30;;;;;;4885046;29;20455;-66
2021/12/09 12:41:08;;;;;;;56.92;28.15;;;2.80;94.10;;;;;;4940714;28;20035;-66
2021/12/09 12:43:58;;;;;;;52.80;27.67;;;2.70;94.30;;;;;;4939957;29;20471;-66
2021/12/09 12:49:19;;;;;;;62.42;28.17;;;2.50;94.70;;;;;;4944196;28;20299;-66
2021/12/09 12:52:01;;;;;;;57.40;27.98;;;2.40;94.90;;;;;;4937867;28;20475;-66
2021/12/09 12:54:47;;;;;;;65.05;28.45;;;2.30;95.20;;;;;;4943481;28;20110;-66
2021/12/09 12:57:34;;;;;;;58.30;27.98;;;2.30;95.60;;;;;;4944666;28;20024;-66
2021/12/09 13:00:08;;;;;;;61.80;26.15;;;2.20;95.70;;;;;;4942450;28;20039;-66
2021/12/09 13:03:01;;;;;;;60.67;28.05;;;2.20;95.70;;;;;;4948642;28;20031;-66
2021/12/09 13:13:50;;;;;;;62.95;30.50;;;2.40;96.10;;;;;;4936323;28;20122;-66
2021/12/09 13:19:21;;;;;;;62.87;29.33;;;2.40;95.90;;;;;;4944078;28;20154;-66
2021/12/09 13:22:02;;;;;;;65.57;30.10;;;2.50;96.00;;;;;;4944759;28;20062;-66
2021/12/09 13:30:13;;;;;;;66.18;29.63;;;2.40;95.80;;;;;;4941401;28;20122;-65
2021/12/09 13:35:37;;;;;;;59.75;28.42;;;2.50;95.70;;;;;;4949306;28;20105;-66
2021/12/09 13:47:06;;;;;;;64.10;29.40;;;2.60;95.70;;;;;;4947737;28;20406;-66
2021/12/09 13:48:57;;;;;;;58.83;28.35;;;2.60;95.70;;;;;;4937286;28;20034;-66
2021/12/09 13:54:34;;;;;;;57.42;27.30;;;2.70;95.60;;;;;;4940643;28;20098;-66
2021/12/09 13:57:04;;;;;;;65.72;28.90;;;2.70;95.40;;;;;;4940464;28;20111;-66
2021/12/09 13:59:34;;;;;;;65.88;29.48;;;2.80;95.40;;;;;;4940088;29;20034;-66
2021/12/09 14:02:12;;;;;;;60.97;27.80;;;2.90;95.30;;;;;;4946443;28;20031;-66